Time;durP1;ratioP1;P1;durP2;ratioP2;P2;SDS_P1;SDS_P2;PMS_P1;PMS_P2;Temp;Humidity;BMP_temperature;BMP_pressure;BME280_temperature;BME280_humidity;BME280_pressure;Samples;Min_cycle;Max_cycle;Signal;HPM_P1;HPM_P2
2021/01/24 00:01:01;;;;;;;1.45;1.35;;;4.70;99.90;;;;;;5078170;28;20250;-72
2021/01/24 00:03:27;;;;;;;2.15;1.95;;;4.70;99.90;;;;;;5077852;28;20212;-72
2021/01/24 00:05:54;;;;;;;3.03;2.08;;;4.70;99.90;;;;;;5078328;28;20576;-73
2021/01/24 00:08:22;;;;;;;2.25;1.75;;;4.80;99.90;;;;;;5078349;28;20289;-72
2021/01/24 00:10:48;;;;;;;1.70;1.60;;;4.80;99.90;;;;;;5078238;28;20235;-73
2021/01/24 00:13:15;;;;;;;2.60;1.50;;;4.90;99.90;;;;;;5078433;28;20206;-72
2021/01/24 00:15:42;;;;;;;2.47;2.05;;;4.80;99.90;;;;;;5076585;28;20293;-72
2021/01/24 00:18:08;;;;;;;2.90;1.70;;;4.70;99.90;;;;;;5077752;28;20297;-72
2021/01/24 00:20:34;;;;;;;1.70;1.30;;;4.70;99.90;;;;;;5077315;28;20205;-73
2021/01/24 00:23:01;;;;;;;1.80;1.48;;;4.60;99.90;;;;;;5077103;28;20618;-72
2021/01/24 00:25:27;;;;;;;1.73;1.63;;;4.70;99.90;;;;;;5077786;28;20232;-72
2021/01/24 00:27:54;;;;;;;1.67;1.33;;;4.70;99.90;;;;;;5076262;28;20205;-73
2021/01/24 00:30:21;;;;;;;1.30;1.20;;;4.70;99.90;;;;;;5077920;28;20317;-72
2021/01/24 00:32:47;;;;;;;1.25;1.15;;;4.70;99.90;;;;;;5078463;28;20206;-72
2021/01/24 00:35:14;;;;;;;1.38;1.30;;;4.70;99.90;;;;;;5078525;28;20783;-73
2021/01/24 00:37:40;;;;;;;1.55;1.45;;;4.70;99.90;;;;;;5077818;28;20297;-72
2021/01/24 00:40:08;;;;;;;1.27;0.90;;;4.70;99.90;;;;;;5078215;28;20199;-72
2021/01/24 00:42:35;;;;;;;2.08;1.55;;;4.70;99.90;;;;;;5077648;28;20222;-72
2021/01/24 00:45:01;;;;;;;2.80;1.45;;;4.80;99.90;;;;;;5077941;28;20203;-73
2021/01/24 00:47:28;;;;;;;2.63;1.35;;;4.80;99.90;;;;;;5077244;28;20251;-72
2021/01/24 00:49:54;;;;;;;1.70;1.40;;;4.60;99.90;;;;;;5077046;28;20364;-73
2021/01/24 00:52:21;;;;;;;1.98;1.23;;;4.60;99.90;;;;;;5077612;28;20321;-73
2021/01/24 00:54:47;;;;;;;1.02;0.93;;;4.60;99.90;;;;;;5077330;28;20203;-73
2021/01/24 00:57:13;;;;;;;1.45;1.35;;;4.50;99.90;;;;;;5076871;28;20198;-72
2021/01/24 00:59:40;;;;;;;1.92;1.45;;;4.60;99.90;;;;;;5077273;28;20290;-72
2021/01/24 01:02:06;;;;;;;2.00;1.45;;;4.60;99.90;;;;;;5076968;28;20752;-72
2021/01/24 01:04:33;;;;;;;2.03;1.45;;;4.60;99.90;;;;;;5076134;28;20669;-72
2021/01/24 01:07:00;;;;;;;2.03;1.30;;;4.60;99.90;;;;;;5075250;28;20203;-72
2021/01/24 01:09:26;;;;;;;1.35;1.15;;;4.70;99.90;;;;;;5075529;28;20314;-72
2021/01/24 01:11:53;;;;;;;2.22;1.23;;;4.70;99.90;;;;;;5075101;28;20233;-72
2021/01/24 01:14:19;;;;;;;1.25;1.02;;;4.60;99.90;;;;;;5076078;28;20266;-72
2021/01/24 01:16:45;;;;;;;1.75;1.25;;;4.60;99.90;;;;;;5075974;28;20202;-72
2021/01/24 01:19:12;;;;;;;2.10;1.10;;;4.60;99.90;;;;;;5075196;28;20203;-72
2021/01/24 01:21:39;;;;;;;2.38;1.40;;;4.50;99.90;;;;;;5074916;28;20226;-72
2021/01/24 01:24:07;;;;;;;3.50;1.10;;;4.50;99.90;;;;;;5074842;28;20203;-72
2021/01/24 01:26:33;;;;;;;1.95;0.90;;;4.50;99.90;;;;;;5074232;28;20692;-72
2021/01/24 01:28:59;;;;;;;1.55;1.25;;;4.60;99.90;;;;;;5074504;28;20209;-72
2021/01/24 01:31:26;;;;;;;1.95;1.30;;;4.60;99.90;;;;;;5074697;28;20225;-72
2021/01/24 01:33:52;;;;;;;2.60;1.30;;;4.60;99.90;;;;;;5075211;28;20210;-72
2021/01/24 01:36:19;;;;;;;1.63;1.10;;;4.60;99.90;;;;;;5074745;28;20289;-72
2021/01/24 01:38:46;;;;;;;1.40;1.30;;;4.60;99.90;;;;;;5074022;28;20234;-72
2021/01/24 01:41:12;;;;;;;1.65;0.90;;;4.50;99.90;;;;;;5074886;28;20329;-72
2021/01/24 01:43:39;;;;;;;1.02;0.88;;;4.50;99.90;;;;;;5074750;28;20745;-72
2021/01/24 01:46:05;;;;;;;2.17;1.35;;;4.50;99.90;;;;;;5074366;28;20629;-72
2021/01/24 01:48:32;;;;;;;0.95;0.85;;;4.50;99.90;;;;;;5074213;28;20610;-72
2021/01/24 01:50:59;;;;;;;1.20;1.10;;;4.40;99.90;;;;;;5074091;28;20314;-72
2021/01/24 01:53:26;;;;;;;1.83;1.20;;;4.40;99.90;;;;;;5074450;28;20203;-73
2021/01/24 01:55:53;;;;;;;3.17;1.27;;;4.30;99.90;;;;;;5073601;28;20249;-72
2021/01/24 01:58:19;;;;;;;2.40;1.58;;;4.30;99.90;;;;;;5074197;28;20305;-72
2021/01/24 02:00:49;;;;;;;1.40;1.10;;;4.30;99.90;;;;;;5074079;28;20622;-72
2021/01/24 02:03:32;;;;;;;2.20;1.38;;;4.30;99.90;;;;;;5073644;28;20247;-72
2021/01/24 02:06:07;;;;;;;1.17;1.08;;;4.20;99.90;;;;;;5073630;28;20202;-72
2021/01/24 02:08:39;;;;;;;2.05;1.10;;;4.20;99.90;;;;;;5074103;28;20214;-72
2021/01/24 02:11:13;;;;;;;1.38;1.05;;;4.30;99.90;;;;;;5073849;28;20229;-72
2021/01/24 02:13:49;;;;;;;1.83;1.40;;;4.20;99.90;;;;;;5073996;28;20195;-72
2021/01/24 02:16:17;;;;;;;1.10;0.85;;;4.20;99.90;;;;;;5073473;28;20209;-72
2021/01/24 02:18:46;;;;;;;0.73;0.60;;;4.20;99.90;;;;;;5073578;28;20198;-72
2021/01/24 02:21:21;;;;;;;0.60;0.40;;;4.30;99.90;;;;;;5073567;28;20226;-72
2021/01/24 02:23:48;;;;;;;0.50;0.50;;;4.30;99.90;;;;;;5073537;28;20655;-72
2021/01/24 02:26:27;;;;;;;0.90;0.75;;;4.30;99.90;;;;;;5073366;28;20210;-72
2021/01/24 02:29:09;;;;;;;0.50;0.40;;;4.30;99.90;;;;;;5073650;28;20202;-72
2021/01/24 02:31:37;;;;;;;0.50;0.30;;;4.30;99.90;;;;;;5073406;28;20764;-72
2021/01/24 02:34:04;;;;;;;1.08;0.50;;;4.30;99.90;;;;;;5073610;28;20546;-72
2021/01/24 02:36:33;;;;;;;0.57;0.30;;;4.30;99.90;;;;;;5073313;28;20210;-72
2021/01/24 02:39:02;;;;;;;0.30;0.30;;;4.30;99.90;;;;;;5073577;28;20202;-72
2021/01/24 02:41:29;;;;;;;0.60;0.40;;;4.30;99.90;;;;;;5073205;28;20309;-72
2021/01/24 02:43:56;;;;;;;0.60;0.40;;;4.30;99.90;;;;;;5073259;28;20641;-72
2021/01/24 02:46:23;;;;;;;0.50;0.45;;;4.30;99.90;;;;;;5073360;28;20583;-72
2021/01/24 02:48:51;;;;;;;0.40;0.30;;;4.30;99.90;;;;;;5073873;28;20206;-72
2021/01/24 02:51:18;;;;;;;0.85;0.30;;;4.30;99.90;;;;;;5076643;28;20230;-72
2021/01/24 02:53:46;;;;;;;0.30;0.30;;;4.20;99.90;;;;;;5077605;28;20661;-72
2021/01/24 02:56:12;;;;;;;0.30;0.20;;;4.20;99.90;;;;;;5077408;28;20206;-72
2021/01/24 02:58:40;;;;;;;0.40;0.40;;;4.10;99.90;;;;;;5077656;28;20283;-72
2021/01/24 03:01:06;;;;;;;0.40;0.30;;;4.10;99.90;;;;;;5077383;28;20219;-72
2021/01/24 03:03:32;;;;;;;0.52;0.52;;;4.10;99.90;;;;;;5077581;28;20213;-72
2021/01/24 03:06:00;;;;;;;0.60;0.30;;;4.10;99.90;;;;;;5077075;28;20285;-72
2021/01/24 03:08:26;;;;;;;2.08;0.40;;;4.10;99.90;;;;;;5077162;28;20229;-72
2021/01/24 03:10:53;;;;;;;0.65;0.65;;;4.10;99.90;;;;;;5076964;28;20249;-72
2021/01/24 03:13:22;;;;;;;0.65;0.52;;;4.10;99.90;;;;;;5077119;28;20203;-72
2021/01/24 03:15:51;;;;;;;0.50;0.38;;;4.10;99.90;;;;;;5076786;28;20236;-71
2021/01/24 03:18:21;;;;;;;0.85;0.55;;;4.00;99.90;;;;;;5077001;28;20293;-72
2021/01/24 03:20:51;;;;;;;0.70;0.70;;;4.00;99.90;;;;;;5076890;28;20276;-72
2021/01/24 03:23:19;;;;;;;1.00;0.70;;;4.00;99.90;;;;;;5076729;28;20213;-72
2021/01/24 03:25:46;;;;;;;0.65;0.45;;;4.00;99.90;;;;;;5076606;28;20225;-72
2021/01/24 03:28:13;;;;;;;3.05;1.10;;;4.00;99.90;;;;;;5077040;28;20203;-71
2021/01/24 03:30:40;;;;;;;0.85;0.85;;;4.10;99.90;;;;;;5076665;28;20257;-72
2021/01/24 03:33:06;;;;;;;1.55;0.95;;;4.00;99.90;;;;;;5076769;28;20289;-72
2021/01/24 03:35:33;;;;;;;1.25;0.82;;;4.00;99.90;;;;;;5076559;28;20202;-72
2021/01/24 03:37:59;;;;;;;0.80;0.80;;;4.00;99.90;;;;;;5076496;28;20683;-72
2021/01/24 03:40:26;;;;;;;2.10;1.05;;;4.00;99.90;;;;;;5076648;28;20203;-72
2021/01/24 03:42:53;;;;;;;0.82;0.70;;;3.90;99.90;;;;;;5076712;28;20199;-72
2021/01/24 03:45:19;;;;;;;1.08;0.80;;;3.90;99.90;;;;;;5076421;28;20234;-72
2021/01/24 03:47:45;;;;;;;1.75;0.80;;;3.90;99.90;;;;;;5076269;28;20203;-72
2021/01/24 03:50:12;;;;;;;1.35;1.00;;;3.80;99.90;;;;;;5076132;28;20749;-72
2021/01/24 03:52:39;;;;;;;1.92;1.05;;;3.80;99.90;;;;;;5076106;28;20276;-72
2021/01/24 03:55:06;;;;;;;1.38;0.98;;;3.70;99.90;;;;;;5076191;28;20294;-72
2021/01/24 03:57:34;;;;;;;1.38;0.90;;;3.60;99.90;;;;;;5075950;28;20620;-72
2021/01/24 04:00:00;;;;;;;1.40;0.82;;;3.50;99.90;;;;;;5076216;28;20683;-72
2021/01/24 04:02:26;;;;;;;2.67;1.58;;;3.60;99.90;;;;;;5075631;28;20718;-72
2021/01/24 04:04:53;;;;;;;1.73;1.60;;;3.60;99.90;;;;;;5076032;28;20294;-72
2021/01/24 04:07:19;;;;;;;3.63;1.08;;;3.60;99.90;;;;;;5075681;28;20203;-71
2021/01/24 04:09:45;;;;;;;3.30;1.40;;;3.60;99.90;;;;;;5075902;28;20310;-72
2021/01/24 04:12:12;;;;;;;1.48;1.10;;;3.60;99.90;;;;;;5076018;28;20683;-72
2021/01/24 04:14:39;;;;;;;3.15;1.58;;;3.60;99.90;;;;;;5075837;28;20202;-72
2021/01/24 04:17:06;;;;;;;2.72;1.55;;;3.70;99.90;;;;;;5075548;28;20205;-71
2021/01/24 04:19:33;;;;;;;0.60;0.60;;;3.70;99.90;;;;;;5075963;28;20637;-71
2021/01/24 04:21:59;;;;;;;1.25;1.00;;;3.70;99.90;;;;;;5075714;28;20313;-72
2021/01/24 04:24:26;;;;;;;2.60;1.40;;;3.70;99.90;;;;;;5075760;28;20205;-71
2021/01/24 04:26:52;;;;;;;1.40;1.00;;;3.70;99.90;;;;;;5075251;28;20218;-72
2021/01/24 04:29:19;;;;;;;1.33;1.23;;;3.70;99.90;;;;;;5075564;28;20213;-72
2021/01/24 04:31:47;;;;;;;1.40;1.30;;;3.70;99.90;;;;;;5075234;28;20222;-72
2021/01/24 04:34:13;;;;;;;1.90;1.33;;;3.70;99.90;;;;;;5075590;28;20294;-72
2021/01/24 04:36:40;;;;;;;2.70;1.30;;;3.50;99.90;;;;;;5075181;28;20206;-71
2021/01/24 04:39:06;;;;;;;1.40;1.10;;;3.50;99.90;;;;;;5075367;28;20205;-72
2021/01/24 04:41:36;;;;;;;1.83;1.33;;;3.40;99.90;;;;;;5075323;28;20218;-72
2021/01/24 04:44:03;;;;;;;1.58;1.23;;;3.40;99.90;;;;;;5075336;28;20673;-72
2021/01/24 04:46:32;;;;;;;0.95;0.85;;;3.30;99.90;;;;;;5075460;28;20202;-71
2021/01/24 04:49:00;;;;;;;4.60;1.75;;;3.30;99.90;;;;;;5074999;28;20213;-72
2021/01/24 04:51:26;;;;;;;0.80;0.80;;;3.30;99.90;;;;;;5075107;28;20249;-72
2021/01/24 04:53:53;;;;;;;2.88;1.83;;;3.30;99.90;;;;;;5075094;28;20207;-72
2021/01/24 04:56:20;;;;;;;2.92;1.73;;;3.30;99.90;;;;;;5074855;28;20209;-72
2021/01/24 04:58:47;;;;;;;1.80;1.20;;;3.20;99.90;;;;;;5075040;28;20289;-71
2021/01/24 05:01:16;;;;;;;1.48;1.25;;;3.20;99.90;;;;;;5074975;28;20221;-72
2021/01/24 05:03:42;;;;;;;2.70;1.42;;;3.10;99.90;;;;;;5074933;28;20217;-72
2021/01/24 05:06:10;;;;;;;1.50;1.25;;;3.20;99.90;;;;;;5074893;28;20344;-72
2021/01/24 05:08:36;;;;;;;1.58;1.00;;;3.10;99.90;;;;;;5074784;28;20341;-72
2021/01/24 05:11:04;;;;;;;1.25;0.90;;;3.20;99.90;;;;;;5074660;28;20230;-72
2021/01/24 05:13:31;;;;;;;1.38;1.00;;;3.10;99.90;;;;;;5074038;28;20296;-71
2021/01/24 05:15:57;;;;;;;1.50;1.23;;;3.20;99.90;;;;;;5074521;28;20202;-72
2021/01/24 05:18:24;;;;;;;0.75;0.68;;;3.20;99.90;;;;;;5074614;28;20202;-72
2021/01/24 05:20:52;;;;;;;2.38;1.15;;;3.20;99.90;;;;;;5074492;28;20306;-71
2021/01/24 05:23:22;;;;;;;1.60;1.10;;;3.20;99.90;;;;;;5074569;28;20199;-72
2021/01/24 05:25:48;;;;;;;1.67;1.13;;;3.20;99.90;;;;;;5074211;28;20222;-72
2021/01/24 05:28:19;;;;;;;2.90;1.17;;;3.20;99.90;;;;;;5074483;28;20209;-71
2021/01/24 05:30:46;;;;;;;1.65;1.05;;;3.10;99.90;;;;;;5074250;28;20318;-72
2021/01/24 05:33:16;;;;;;;4.05;1.23;;;3.20;99.90;;;;;;5074081;28;20211;-72
2021/01/24 05:35:50;;;;;;;4.50;1.65;;;3.10;99.90;;;;;;5074150;28;20293;-71
2021/01/24 05:38:24;;;;;;;1.25;1.15;;;3.00;99.90;;;;;;5074198;28;20213;-71
2021/01/24 05:40:51;;;;;;;2.97;1.60;;;2.90;99.90;;;;;;5073987;28;20214;-72
2021/01/24 05:43:17;;;;;;;2.33;1.27;;;2.90;99.90;;;;;;5074297;28;20572;-71
2021/01/24 05:45:44;;;;;;;1.13;0.93;;;2.90;99.90;;;;;;5074013;28;20198;-72
2021/01/24 05:48:10;;;;;;;2.55;1.70;;;2.90;99.90;;;;;;5074134;28;20210;-72
2021/01/24 05:50:37;;;;;;;2.63;1.60;;;3.00;99.90;;;;;;5073851;28;20361;-72
2021/01/24 05:53:05;;;;;;;2.72;1.67;;;3.00;99.90;;;;;;5074058;28;20205;-72
2021/01/24 05:55:33;;;;;;;1.10;1.10;;;3.00;99.90;;;;;;5074229;28;20207;-72
2021/01/24 05:58:14;;;;;;;2.00;1.25;;;3.00;99.90;;;;;;5073768;28;20207;-71
2021/01/24 06:00:42;;;;;;;2.50;1.30;;;3.00;99.90;;;;;;5074510;28;20190;-72
2021/01/24 06:03:09;;;;;;;2.47;1.00;;;3.00;99.90;;;;;;5073918;28;20550;-71
2021/01/24 06:05:36;;;;;;;1.83;1.52;;;3.00;99.90;;;;;;5073662;28;20215;-72
2021/01/24 06:08:03;;;;;;;2.40;1.35;;;3.00;99.90;;;;;;5074270;28;20255;-72
2021/01/24 06:10:30;;;;;;;1.67;1.23;;;3.00;99.90;;;;;;5073938;28;20229;-72
2021/01/24 06:12:59;;;;;;;1.88;1.50;;;3.00;99.90;;;;;;5073765;28;20687;-71
2021/01/24 06:15:27;;;;;;;3.13;1.67;;;3.00;99.90;;;;;;5074104;28;20203;-71
2021/01/24 06:17:57;;;;;;;2.83;1.60;;;3.00;99.90;;;;;;5074019;28;20614;-72
2021/01/24 06:20:26;;;;;;;2.30;1.60;;;3.00;99.90;;;;;;5073887;28;20198;-71
2021/01/24 06:22:58;;;;;;;2.80;1.90;;;2.90;99.90;;;;;;5073805;28;20213;-71
2021/01/24 06:25:28;;;;;;;3.15;1.52;;;2.80;99.90;;;;;;5073630;28;20205;-72
2021/01/24 06:28:00;;;;;;;2.97;2.15;;;2.80;99.90;;;;;;5073792;28;20203;-72
2021/01/24 06:30:28;;;;;;;2.28;1.33;;;2.70;99.90;;;;;;5073670;28;20566;-71
2021/01/24 06:32:54;;;;;;;1.48;1.35;;;2.70;99.90;;;;;;5073754;28;20309;-71
2021/01/24 06:35:23;;;;;;;3.45;1.77;;;2.70;99.90;;;;;;5073936;28;20248;-72
2021/01/24 06:37:59;;;;;;;1.83;1.38;;;2.80;99.90;;;;;;5074204;28;20206;-71
2021/01/24 06:40:28;;;;;;;2.17;1.40;;;2.80;99.90;;;;;;5074186;28;20625;-72
2021/01/24 06:43:01;;;;;;;4.30;2.17;;;2.80;99.90;;;;;;5073952;28;20209;-72
2021/01/24 06:45:46;;;;;;;1.33;1.02;;;2.80;99.90;;;;;;5073340;28;20289;-71
2021/01/24 06:48:16;;;;;;;4.05;2.17;;;2.80;99.90;;;;;;5073659;28;20210;-71
2021/01/24 06:50:47;;;;;;;3.65;2.13;;;2.70;99.90;;;;;;5073122;28;20588;-72
2021/01/24 06:53:20;;;;;;;1.98;1.40;;;2.70;99.90;;;;;;5073400;28;20210;-72
2021/01/24 06:55:58;;;;;;;3.67;2.17;;;2.70;99.90;;;;;;5073221;28;20248;-72
2021/01/24 06:58:30;;;;;;;2.50;1.25;;;2.70;99.90;;;;;;5073430;28;20199;-71
2021/01/24 07:01:22;;;;;;;3.47;1.83;;;2.70;99.90;;;;;;5073103;28;20272;-71
2021/01/24 07:03:49;;;;;;;2.70;1.48;;;2.70;99.90;;;;;;5073313;28;20211;-72
2021/01/24 07:06:31;;;;;;;1.33;1.23;;;2.60;99.90;;;;;;5073551;28;20614;-72
2021/01/24 07:08:58;;;;;;;5.57;1.83;;;2.60;99.90;;;;;;5073420;28;20210;-71
2021/01/24 07:11:49;;;;;;;5.18;1.95;;;2.60;99.90;;;;;;5073269;28;20314;-72
2021/01/24 07:14:49;;;;;;;2.15;1.80;;;2.50;99.90;;;;;;5073348;28;20187;-71
2021/01/24 07:17:17;;;;;;;2.00;1.42;;;2.50;99.90;;;;;;5073124;28;20565;-71
2021/01/24 07:19:45;;;;;;;2.15;1.75;;;2.60;99.90;;;;;;5073323;28;20272;-71
2021/01/24 07:22:12;;;;;;;6.13;3.35;;;2.60;99.90;;;;;;5073005;28;20223;-71
2021/01/24 07:24:40;;;;;;;6.20;2.30;;;2.60;99.90;;;;;;5072964;28;20199;-71
2021/01/24 07:27:08;;;;;;;1.85;1.13;;;2.60;99.90;;;;;;5072796;28;20609;-71
2021/01/24 07:29:35;;;;;;;1.08;1.00;;;2.60;99.90;;;;;;5072899;28;20786;-71
2021/01/24 07:32:06;;;;;;;5.72;2.15;;;2.50;99.90;;;;;;5073156;28;20227;-71
2021/01/24 07:34:33;;;;;;;3.95;1.40;;;2.50;99.90;;;;;;5073212;28;20294;-71
2021/01/24 07:37:01;;;;;;;1.40;1.00;;;2.60;99.90;;;;;;5075062;28;20207;-72
2021/01/24 07:39:29;;;;;;;1.77;1.30;;;2.60;99.90;;;;;;5076386;28;20207;-71
2021/01/24 07:41:56;;;;;;;3.67;1.90;;;2.60;99.90;;;;;;5076597;28;20229;-72
2021/01/24 07:44:22;;;;;;;1.90;1.50;;;2.60;99.90;;;;;;5076638;28;20210;-72
2021/01/24 07:46:49;;;;;;;1.70;1.48;;;2.60;99.90;;;;;;5076104;28;20661;-71
2021/01/24 07:49:16;;;;;;;4.47;1.25;;;2.60;99.90;;;;;;5076502;28;20615;-71
2021/01/24 07:51:43;;;;;;;1.75;1.13;;;2.60;99.90;;;;;;5076118;28;20230;-72
2021/01/24 07:54:10;;;;;;;1.42;1.33;;;2.60;99.90;;;;;;5076216;28;20729;-71
2021/01/24 07:56:37;;;;;;;2.78;1.83;;;2.70;99.90;;;;;;5075908;28;20199;-71
2021/01/24 07:59:04;;;;;;;2.42;1.55;;;2.70;99.90;;;;;;5076209;28;20716;-71
2021/01/24 08:01:31;;;;;;;1.23;1.05;;;2.70;99.90;;;;;;5076327;28;20576;-72
2021/01/24 08:04:00;;;;;;;2.13;1.90;;;2.70;99.90;;;;;;5075179;28;20206;-71
2021/01/24 08:06:27;;;;;;;3.92;2.00;;;2.80;99.90;;;;;;5076507;28;20199;-72
2021/01/24 08:08:54;;;;;;;4.15;1.95;;;2.90;99.90;;;;;;5077038;28;20199;-73
2021/01/24 08:11:21;;;;;;;2.08;1.60;;;3.00;99.90;;;;;;5076373;28;20708;-71
2021/01/24 08:13:47;;;;;;;3.22;1.55;;;2.90;99.90;;;;;;5076744;28;20217;-72
2021/01/24 08:16:20;;;;;;;1.70;1.25;;;3.00;99.90;;;;;;5075830;28;20203;-71
2021/01/24 08:18:48;;;;;;;1.60;1.23;;;3.00;99.90;;;;;;5075934;28;20207;-72
2021/01/24 08:21:16;;;;;;;1.95;1.48;;;3.00;99.90;;;;;;5075511;28;20219;-71
2021/01/24 08:23:44;;;;;;;3.83;1.30;;;3.00;99.90;;;;;;5075615;28;20217;-71
2021/01/24 08:26:11;;;;;;;1.63;1.50;;;3.00;99.90;;;;;;5075576;28;20263;-72
2021/01/24 08:28:37;;;;;;;1.13;1.02;;;3.00;99.90;;;;;;5075754;28;20209;-71
2021/01/24 08:31:04;;;;;;;3.42;1.20;;;2.90;99.90;;;;;;5075567;28;20745;-71
2021/01/24 08:33:32;;;;;;;1.30;1.00;;;2.80;99.90;;;;;;5075676;28;20244;-71
2021/01/24 08:36:11;;;;;;;1.80;1.35;;;2.80;99.90;;;;;;5075419;28;20220;-71
2021/01/24 08:38:38;;;;;;;2.20;1.23;;;2.80;99.90;;;;;;5075519;28;20305;-71
2021/01/24 08:41:05;;;;;;;1.75;1.25;;;2.80;99.90;;;;;;5075488;28;20226;-71
2021/01/24 08:43:32;;;;;;;2.67;1.40;;;2.80;99.90;;;;;;5075530;28;20724;-71
2021/01/24 08:46:20;;;;;;;2.00;1.63;;;2.90;99.90;;;;;;5075240;28;20213;-72
2021/01/24 08:48:58;;;;;;;1.30;1.02;;;3.00;99.90;;;;;;5074146;28;20669;-72
2021/01/24 08:51:25;;;;;;;1.90;1.45;;;3.00;99.90;;;;;;5075108;28;20230;-72
2021/01/24 08:53:51;;;;;;;2.38;1.10;;;3.10;99.90;;;;;;5074977;28;20213;-71
2021/01/24 08:56:22;;;;;;;2.45;1.83;;;3.30;99.90;;;;;;5074956;28;20573;-71
2021/01/24 08:58:48;;;;;;;3.30;1.50;;;3.30;99.90;;;;;;5074863;28;20657;-71
2021/01/24 09:01:14;;;;;;;1.38;0.93;;;3.40;99.90;;;;;;5075321;28;20221;-71
2021/01/24 09:03:41;;;;;;;8.15;3.45;;;3.40;99.90;;;;;;5075043;28;20309;-71
2021/01/24 09:06:14;;;;;;;5.10;2.03;;;3.40;99.90;;;;;;5074473;28;20238;-72
2021/01/24 09:08:48;;;;;;;1.52;1.30;;;3.50;99.90;;;;;;5074867;28;20199;-71
2021/01/24 09:11:15;;;;;;;2.80;1.70;;;3.60;99.90;;;;;;5074582;28;20237;-72
2021/01/24 09:13:42;;;;;;;1.70;1.13;;;3.50;99.90;;;;;;5074835;28;20202;-71
2021/01/24 09:16:08;;;;;;;1.17;1.17;;;3.60;99.90;;;;;;5074595;28;20226;-71
2021/01/24 09:18:35;;;;;;;1.85;1.60;;;3.50;99.90;;;;;;5074611;28;20213;-71
2021/01/24 09:21:02;;;;;;;1.23;1.02;;;3.40;99.90;;;;;;5074523;28;20306;-72
2021/01/24 09:23:28;;;;;;;1.85;1.52;;;3.30;99.90;;;;;;5074651;28;20561;-71
2021/01/24 09:25:55;;;;;;;2.38;1.25;;;3.30;99.90;;;;;;5074296;28;20297;-71
2021/01/24 09:28:21;;;;;;;5.32;1.50;;;3.40;99.90;;;;;;5074546;28;20290;-71
2021/01/24 09:30:48;;;;;;;2.53;1.45;;;3.40;99.90;;;;;;5074308;28;20317;-72
2021/01/24 09:33:15;;;;;;;1.40;1.23;;;3.40;99.90;;;;;;5074610;28;20569;-72
2021/01/24 09:35:44;;;;;;;3.08;1.55;;;3.40;99.90;;;;;;5074181;28;20234;-71
2021/01/24 09:38:10;;;;;;;2.70;1.50;;;3.40;99.90;;;;;;5074264;28;20281;-71
2021/01/24 09:40:37;;;;;;;2.15;1.80;;;3.30;99.90;;;;;;5074053;28;20653;-71
2021/01/24 09:43:03;;;;;;;1.23;1.10;;;3.10;99.90;;;;;;5074379;28;20309;-71
2021/01/24 09:45:38;;;;;;;2.35;1.33;;;3.10;99.90;;;;;;5073963;28;20289;-72
2021/01/24 09:48:07;;;;;;;2.40;1.35;;;3.00;99.90;;;;;;5074319;28;20297;-72
2021/01/24 09:50:33;;;;;;;3.38;1.92;;;3.10;99.90;;;;;;5073927;28;20223;-71
2021/01/24 09:52:59;;;;;;;3.13;2.20;;;3.20;99.90;;;;;;5074163;28;20234;-71
2021/01/24 09:55:26;;;;;;;4.45;2.28;;;3.30;99.90;;;;;;5074050;28;20209;-71
2021/01/24 09:57:52;;;;;;;1.90;1.70;;;3.40;99.90;;;;;;5073741;28;20209;-71
2021/01/24 10:00:19;;;;;;;2.45;2.10;;;3.40;99.90;;;;;;5073766;28;20207;-71
2021/01/24 10:02:48;;;;;;;3.08;1.90;;;3.50;99.90;;;;;;5073825;28;20278;-72
2021/01/24 10:05:15;;;;;;;2.45;2.17;;;3.50;99.90;;;;;;5073559;28;20208;-72
2021/01/24 10:07:42;;;;;;;3.58;2.00;;;3.60;99.90;;;;;;5073495;28;20247;-71
2021/01/24 10:10:09;;;;;;;3.85;2.65;;;3.70;99.90;;;;;;5073742;28;20579;-71
2021/01/24 10:12:36;;;;;;;1.85;1.50;;;3.70;99.90;;;;;;5073872;28;20227;-71
2021/01/24 10:15:02;;;;;;;3.55;1.92;;;3.70;99.90;;;;;;5073715;28;20752;-71
2021/01/24 10:17:28;;;;;;;1.88;1.77;;;3.70;99.90;;;;;;5073321;28;20199;-71
2021/01/24 10:19:55;;;;;;;3.30;2.00;;;3.70;99.90;;;;;;5073755;28;20297;-71
2021/01/24 10:22:22;;;;;;;2.50;1.38;;;3.80;99.90;;;;;;5073960;28;20226;-71
2021/01/24 10:24:48;;;;;;;3.42;1.90;;;3.80;99.90;;;;;;5074109;28;20305;-71
2021/01/24 10:27:14;;;;;;;1.30;0.88;;;3.90;99.90;;;;;;5073658;28;20213;-71
2021/01/24 10:29:41;;;;;;;1.95;1.80;;;4.00;99.90;;;;;;5073666;28;20298;-71
2021/01/24 10:32:07;;;;;;;2.22;1.67;;;3.90;99.90;;;;;;5073425;28;20302;-71
2021/01/24 10:34:33;;;;;;;3.13;1.50;;;4.10;99.90;;;;;;5073785;28;20293;-72
2021/01/24 10:37:00;;;;;;;3.25;2.00;;;4.10;99.90;;;;;;5073459;28;20241;-71
2021/01/24 10:39:27;;;;;;;1.67;0.90;;;4.20;99.90;;;;;;5073728;28;20597;-72
2021/01/24 10:41:53;;;;;;;1.40;1.30;;;4.20;99.90;;;;;;5073514;28;20219;-71
2021/01/24 10:44:20;;;;;;;1.65;1.38;;;4.20;99.90;;;;;;5073702;28;20206;-71
2021/01/24 10:46:46;;;;;;;1.40;1.20;;;4.20;99.90;;;;;;5073122;28;20665;-71
2021/01/24 10:49:12;;;;;;;1.52;0.93;;;4.20;99.90;;;;;;5073276;28;20290;-71
2021/01/24 10:51:38;;;;;;;1.50;1.20;;;4.10;99.90;;;;;;5073735;28;20242;-71
2021/01/24 10:54:05;;;;;;;1.40;1.30;;;3.90;99.90;;;;;;5073175;28;20293;-71
2021/01/24 10:56:32;;;;;;;1.02;0.90;;;3.90;99.90;;;;;;5073106;28;20567;-71
2021/01/24 10:58:59;;;;;;;0.80;0.80;;;4.00;99.90;;;;;;5073380;28;20210;-71
2021/01/24 11:01:25;;;;;;;3.20;1.30;;;4.10;99.90;;;;;;5073612;28;20555;-71
2021/01/24 11:03:51;;;;;;;2.72;1.40;;;4.20;99.90;;;;;;5073375;28;20205;-71
2021/01/24 11:06:17;;;;;;;1.77;1.17;;;4.20;99.90;;;;;;5072812;28;20669;-71
2021/01/24 11:08:44;;;;;;;3.08;1.20;;;4.40;99.90;;;;;;5073288;28;20298;-71
2021/01/24 11:11:10;;;;;;;0.65;0.65;;;4.40;99.80;;;;;;5074238;28;20253;-71
2021/01/24 11:13:37;;;;;;;1.42;0.98;;;4.50;99.60;;;;;;5077316;28;20627;-71
2021/01/24 11:16:04;;;;;;;1.25;0.70;;;4.40;97.80;;;;;;5077090;28;20713;-71
2021/01/24 11:18:30;;;;;;;1.50;1.15;;;4.30;97.40;;;;;;5077497;28;20209;-71
2021/01/24 11:20:57;;;;;;;0.80;0.80;;;4.40;97.40;;;;;;5076622;28;20715;-71
2021/01/24 11:23:23;;;;;;;0.80;0.80;;;4.40;97.10;;;;;;5077056;28;20297;-71
2021/01/24 11:25:49;;;;;;;1.65;1.23;;;4.40;96.60;;;;;;5076551;28;20237;-71
2021/01/24 11:28:15;;;;;;;1.48;1.02;;;4.40;97.10;;;;;;5076704;28;20228;-71
2021/01/24 11:30:43;;;;;;;1.05;0.95;;;4.50;96.80;;;;;;5076576;28;20643;-71
2021/01/24 11:33:09;;;;;;;1.05;1.00;;;4.50;96.60;;;;;;5076774;28;20264;-71
2021/01/24 11:35:35;;;;;;;1.85;1.30;;;4.50;96.30;;;;;;5076519;28;20279;-70
2021/01/24 11:38:02;;;;;;;1.60;1.30;;;4.40;97.00;;;;;;5076625;28;20333;-71
2021/01/24 11:40:28;;;;;;;1.33;1.20;;;4.50;96.50;;;;;;5076521;28;20203;-71
2021/01/24 11:42:54;;;;;;;3.80;1.25;;;4.60;97.00;;;;;;5076687;28;20281;-71
2021/01/24 11:45:21;;;;;;;2.85;1.67;;;4.70;96.50;;;;;;5076576;28;20199;-71
2021/01/24 11:47:48;;;;;;;1.45;1.25;;;4.70;96.40;;;;;;5076473;28;20210;-71
2021/01/24 11:50:15;;;;;;;1.20;0.80;;;4.80;96.30;;;;;;5076355;28;20309;-71
2021/01/24 11:52:41;;;;;;;2.00;1.42;;;4.80;95.50;;;;;;5076379;28;20313;-71
2021/01/24 11:55:08;;;;;;;1.20;1.05;;;4.70;95.80;;;;;;5076345;28;20209;-71
2021/01/24 11:57:34;;;;;;;1.77;1.17;;;4.80;96.00;;;;;;5076214;28;20211;-71
2021/01/24 12:00:01;;;;;;;1.08;0.98;;;4.90;96.40;;;;;;5076356;28;20289;-71
2021/01/24 12:02:27;;;;;;;1.85;1.27;;;5.00;95.60;;;;;;5076144;28;20249;-71
2021/01/24 12:04:54;;;;;;;1.42;0.88;;;5.10;95.90;;;;;;5076357;28;20228;-71
2021/01/24 12:07:20;;;;;;;4.32;1.75;;;5.10;95.10;;;;;;5075972;28;20292;-71
2021/01/24 12:09:47;;;;;;;1.48;1.02;;;5.00;95.00;;;;;;5076157;28;20767;-71
2021/01/24 12:12:13;;;;;;;2.33;1.27;;;4.80;95.30;;;;;;5076079;28;20275;-71
2021/01/24 12:14:39;;;;;;;1.40;1.10;;;4.60;95.00;;;;;;5076337;28;20259;-71
2021/01/24 12:17:06;;;;;;;1.35;1.25;;;4.50;95.90;;;;;;5075850;28;20298;-71
2021/01/24 12:19:32;;;;;;;2.00;1.25;;;4.50;96.00;;;;;;5075849;28;20327;-71
2021/01/24 12:21:59;;;;;;;1.05;1.00;;;4.50;95.90;;;;;;5075657;28;20271;-71
2021/01/24 12:24:26;;;;;;;1.17;0.82;;;4.40;95.80;;;;;;5075805;28;20799;-71
2021/01/24 12:26:52;;;;;;;2.10;1.02;;;4.20;96.40;;;;;;5075575;28;20261;-71
2021/01/24 12:29:20;;;;;;;2.08;1.05;;;4.20;96.90;;;;;;5075801;28;20198;-71
2021/01/24 12:31:47;;;;;;;1.98;1.15;;;4.20;96.80;;;;;;5075664;28;20226;-71
2021/01/24 12:34:13;;;;;;;1.77;1.20;;;4.20;96.30;;;;;;5075701;28;20203;-71
2021/01/24 12:36:39;;;;;;;1.23;1.10;;;4.20;96.50;;;;;;5075317;28;20764;-71
2021/01/24 12:39:07;;;;;;;1.50;1.30;;;4.40;96.40;;;;;;5075401;28;20281;-71
2021/01/24 12:41:34;;;;;;;3.67;1.27;;;4.40;96.80;;;;;;5075433;28;20218;-71
2021/01/24 12:44:00;;;;;;;2.78;1.75;;;4.50;96.60;;;;;;5075480;28;20241;-71
2021/01/24 12:46:26;;;;;;;1.50;1.17;;;4.50;96.50;;;;;;5075082;28;20238;-71
2021/01/24 12:48:52;;;;;;;2.03;1.70;;;4.40;95.90;;;;;;5075277;28;20209;-71
2021/01/24 12:51:19;;;;;;;1.77;1.35;;;4.30;96.30;;;;;;5075120;28;20318;-71
2021/01/24 12:53:45;;;;;;;2.10;1.38;;;4.10;96.40;;;;;;5075284;28;20234;-71
2021/01/24 12:56:12;;;;;;;1.65;1.50;;;4.10;96.90;;;;;;5074863;28;20661;-71
2021/01/24 12:58:38;;;;;;;2.33;1.50;;;4.20;96.90;;;;;;5075067;28;20660;-71
2021/01/24 13:01:05;;;;;;;2.30;1.60;;;4.30;96.90;;;;;;5075082;28;20229;-71